RRR5782 LCRA-LLNV
Flight info
| Callsign | RRR5782 |
|---|---|
| Flight time | 0h 31m |
| Altitude | 33000 |
| Route | ANANE Z89 IDAKU L35 PIKOG L609 VOLFO N134 ADLOD J10 TOMAL/N0383F150 J10 SIVAK/N0379F140 J10 MZD/N0295F100 Y142 VURDI |
| Aircraft | B462/M-SDFGIRWY/LB1 |
Departure
| Time | 2026-04-17 20:25 |
|---|---|
| Airport | RAF Akrotiri (LCRA) |
Arrival
| Time | 2026-04-17 20:56 |
|---|---|
| Airport | Nevatim Air Base (LLNV) |
| Time | Latitude | Longitude | Altitude | Speed | Heading |
|---|---|---|---|---|---|
| 2026-04-17 19:53 | 34.58478 | 32.99735 | 76 ft | 0 kts | 34° |
| 2026-04-17 20:17 | 34.58492 | 32.99746 | 73 ft | 6 kts | 34° |
| 2026-04-17 20:17 | 34.58503 | 32.99758 | 76 ft | 0 kts | 39° |
| 2026-04-17 20:17 | 34.58506 | 32.99765 | 68 ft | 1 kts | 90° |
| 2026-04-17 20:18 | 34.58499 | 32.99784 | 76 ft | 4 kts | 114° |
| 2026-04-17 20:18 | 34.58501 | 32.99825 | 71 ft | 7 kts | 49° |
| 2026-04-17 20:18 | 34.58550 | 32.99842 | 72 ft | 9 kts | 359° |
| 2026-04-17 20:18 | 34.58584 | 32.99800 | 74 ft | 6 kts | 294° |
| 2026-04-17 20:19 | 34.58603 | 32.99745 | 68 ft | 8 kts | 288° |
| 2026-04-17 20:19 | 34.58628 | 32.99665 | 71 ft | 13 kts | 291° |
| 2026-04-17 20:19 | 34.58663 | 32.99528 | 74 ft | 20 kts | 287° |
| 2026-04-17 20:19 | 34.58710 | 32.99359 | 75 ft | 20 kts | 287° |
| 2026-04-17 20:20 | 34.58751 | 32.99204 | 72 ft | 18 kts | 287° |
| 2026-04-17 20:20 | 34.58788 | 32.99062 | 72 ft | 17 kts | 287° |
| 2026-04-17 20:20 | 34.58819 | 32.98935 | 70 ft | 15 kts | 287° |
| 2026-04-17 20:20 | 34.58850 | 32.98823 | 73 ft | 13 kts | 291° |
| 2026-04-17 20:21 | 34.58878 | 32.98718 | 72 ft | 14 kts | 287° |
| 2026-04-17 20:21 | 34.58908 | 32.98603 | 73 ft | 15 kts | 288° |
| 2026-04-17 20:21 | 34.58942 | 32.98477 | 72 ft | 17 kts | 287° |
| 2026-04-17 20:21 | 34.58985 | 32.98318 | 75 ft | 21 kts | 287° |
| 2026-04-17 20:22 | 34.59092 | 32.98300 | 75 ft | 16 kts | 15° |
| 2026-04-17 20:22 | 34.59147 | 32.98360 | 71 ft | 10 kts | 121° |
| 2026-04-17 20:22 | 34.59137 | 32.98389 | 75 ft | 0 kts | 103° |
| 2026-04-17 20:24 | 34.59134 | 32.98404 | 75 ft | 9 kts | 106° |
| 2026-04-17 20:24 | 34.59057 | 32.98694 | 72 ft | 71 kts | 108° |
| 2026-04-17 20:24 | 34.58843 | 32.99544 | 83 ft | 133 kts | 107° |
| 2026-04-17 20:24 | 34.58575 | 33.00614 | 407 ft | 150 kts | 104° |
| 2026-04-17 20:25 | 34.58227 | 33.01903 | 794 ft | 165 kts | 105° |
| 2026-04-17 20:25 | 34.57841 | 33.03285 | 1147 ft | 180 kts | 107° |
| 2026-04-17 20:25 | 34.57403 | 33.04698 | 1574 ft | 197 kts | 110° |
| 2026-04-17 20:25 | 34.56805 | 33.06329 | 2007 ft | 222 kts | 121° |
| 2026-04-17 20:26 | 34.55626 | 33.07586 | 2563 ft | 235 kts | 162° |
| 2026-04-17 20:26 | 34.54015 | 33.07538 | 3132 ft | 241 kts | 208° |
| 2026-04-17 20:26 | 34.52702 | 33.06253 | 3689 ft | 252 kts | 230° |
| 2026-04-17 20:26 | 34.51699 | 33.04430 | 4200 ft | 263 kts | 248° |
| 2026-04-17 20:27 | 34.51490 | 33.02294 | 5368 ft | 251 kts | 267° |
| 2026-04-17 20:27 | 34.51455 | 33.00227 | 6390 ft | 247 kts | 263° |
| 2026-04-17 20:27 | 34.51163 | 32.98197 | 7074 ft | 242 kts | 243° |
| 2026-04-17 20:27 | 34.50236 | 32.96504 | 7666 ft | 243 kts | 229° |
| 2026-04-17 20:28 | 34.49105 | 32.94972 | 8328 ft | 245 kts | 225° |
| 2026-04-17 20:28 | 34.47903 | 32.93498 | 9064 ft | 247 kts | 223° |
| 2026-04-17 20:28 | 34.46659 | 32.92049 | 9788 ft | 249 kts | 222° |
| 2026-04-17 20:28 | 34.45394 | 32.90601 | 10501 ft | 250 kts | 221° |
| 2026-04-17 20:29 | 34.44112 | 32.89162 | 11195 ft | 251 kts | 217° |
| 2026-04-17 20:29 | 34.42536 | 32.88320 | 11856 ft | 254 kts | 187° |
| 2026-04-17 20:29 | 34.40778 | 32.88688 | 12531 ft | 266 kts | 159° |
| 2026-04-17 20:29 | 34.39326 | 32.90154 | 13190 ft | 284 kts | 133° |
| 2026-04-17 20:30 | 34.36974 | 32.93865 | 14286 ft | 275 kts | 154° |
| 2026-04-17 20:30 | 34.35337 | 32.95066 | 14799 ft | 277 kts | 157° |
| 2026-04-17 20:30 | 34.33661 | 32.96236 | 15323 ft | 279 kts | 157° |
| 2026-04-17 20:31 | 34.31985 | 32.97447 | 15866 ft | 282 kts | 156° |
| 2026-04-17 20:31 | 34.30452 | 32.98628 | 16369 ft | 284 kts | 155° |
| 2026-04-17 20:31 | 34.28745 | 32.99960 | 16433 ft | 301 kts | 156° |
| 2026-04-17 20:31 | 34.26913 | 33.01322 | 16429 ft | 317 kts | 155° |
| 2026-04-17 20:32 | 34.26889 | 33.01341 | 16427 ft | 317 kts | 155° |
| 2026-04-17 20:32 | 34.25462 | 33.02433 | 16427 ft | 328 kts | 154° |
| 2026-04-17 20:32 | 34.23538 | 33.03954 | 16447 ft | 339 kts | 155° |
| 2026-04-17 20:32 | 34.21539 | 33.05453 | 16862 ft | 339 kts | 155° |
| 2026-04-17 20:33 | 34.15844 | 33.09692 | 17871 ft | 345 kts | 156° |
| 2026-04-17 20:33 | 34.12144 | 33.12472 | 18454 ft | 349 kts | 155° |
| 2026-04-17 20:33 | 34.03855 | 33.18827 | 19712 ft | 355 kts | 155° |
| 2026-04-17 20:33 | 33.95522 | 33.25408 | 20922 ft | 362 kts | 155° |
| 2026-04-17 20:34 | 33.87096 | 33.32246 | 22100 ft | 367 kts | 155° |
| 2026-04-17 20:34 | 33.78665 | 33.39255 | 23236 ft | 373 kts | 155° |
| 2026-04-17 20:34 | 33.70103 | 33.46495 | 24081 ft | 379 kts | 155° |
| 2026-04-17 20:34 | 33.61363 | 33.53909 | 24870 ft | 387 kts | 155° |
| 2026-04-17 20:35 | 33.52498 | 33.61409 | 25601 ft | 393 kts | 155° |
| 2026-04-17 20:35 | 33.43480 | 33.68994 | 26284 ft | 400 kts | 155° |
| 2026-04-17 20:35 | 33.34411 | 33.76569 | 26928 ft | 406 kts | 155° |
| 2026-04-17 20:35 | 33.25310 | 33.84135 | 27505 ft | 412 kts | 155° |
| 2026-04-17 20:36 | 33.16238 | 33.91865 | 28029 ft | 418 kts | 154° |
| 2026-04-17 20:36 | 33.06719 | 33.99978 | 28511 ft | 423 kts | 154° |
| 2026-04-17 20:36 | 32.97124 | 34.08248 | 28919 ft | 429 kts | 153° |
| 2026-04-17 20:36 | 32.88701 | 34.15624 | 29225 ft | 434 kts | 152° |
| 2026-04-17 20:37 | 32.83720 | 34.19235 | 29138 ft | 399 kts | 165° |
| 2026-04-17 20:37 | 32.81210 | 34.20545 | 28971 ft | 392 kts | 166° |
| 2026-04-17 20:37 | 32.78712 | 34.21851 | 29083 ft | 393 kts | 165° |
| 2026-04-17 20:38 | 32.75366 | 34.23810 | 29264 ft | 399 kts | 162° |
| 2026-04-17 20:38 | 32.65344 | 34.29576 | 29756 ft | 402 kts | 164° |
| 2026-04-17 20:38 | 32.55182 | 34.35358 | 30175 ft | 408 kts | 162° |
| 2026-04-17 20:38 | 32.44896 | 34.41164 | 30560 ft | 410 kts | 164° |
| 2026-04-17 20:39 | 32.34900 | 34.46851 | 30916 ft | 414 kts | 164° |
| 2026-04-17 20:39 | 32.32424 | 34.48235 | 30993 ft | 416 kts | 163° |
| 2026-04-17 20:39 | 32.27228 | 34.51198 | 31122 ft | 411 kts | 163° |
| 2026-04-17 20:40 | 32.24645 | 34.52649 | 30959 ft | 412 kts | 164° |
| 2026-04-17 20:40 | 32.22042 | 34.54103 | 30676 ft | 417 kts | 163° |
| 2026-04-17 20:40 | 32.19410 | 34.55605 | 30465 ft | 422 kts | 161° |
| 2026-04-17 20:40 | 32.17030 | 34.57631 | 30306 ft | 440 kts | 142° |
| 2026-04-17 20:41 | 32.15229 | 34.60602 | 30343 ft | 450 kts | 123° |
| 2026-04-17 20:41 | 32.14241 | 34.64098 | 30351 ft | 451 kts | 105° |
| 2026-04-17 20:41 | 32.14142 | 34.67772 | 30357 ft | 447 kts | 87° |
| 2026-04-17 20:41 | 32.14361 | 34.69898 | 30288 ft | 438 kts | 89° |
| 2026-04-17 20:42 | 32.14196 | 34.73445 | 29409 ft | 430 kts | 110° |
| 2026-04-17 20:42 | 32.13441 | 34.76823 | 28944 ft | 422 kts | 112° |
| 2026-04-17 20:42 | 32.12730 | 34.80157 | 28764 ft | 414 kts | 110° |
| 2026-04-17 20:42 | 32.12115 | 34.83487 | 28830 ft | 417 kts | 108° |
| 2026-04-17 20:43 | 32.11081 | 34.90261 | 28949 ft | 418 kts | 109° |
| 2026-04-17 20:43 | 32.09299 | 34.96692 | 29035 ft | 412 kts | 118° |
| 2026-04-17 20:44 | 32.07322 | 35.02993 | 28402 ft | 414 kts | 115° |
| 2026-04-17 20:44 | 32.06472 | 35.06229 | 27875 ft | 409 kts | 115° |
| 2026-04-17 20:44 | 32.05590 | 35.09392 | 27365 ft | 402 kts | 117° |
| 2026-04-17 20:45 | 32.04649 | 35.12465 | 26907 ft | 395 kts | 116° |
| 2026-04-17 20:45 | 32.03754 | 35.15519 | 26383 ft | 392 kts | 116° |
| 2026-04-17 20:45 | 32.02899 | 35.18550 | 25896 ft | 388 kts | 115° |
| 2026-04-17 20:45 | 32.02059 | 35.21559 | 25417 ft | 384 kts | 116° |
| 2026-04-17 20:46 | 32.01153 | 35.24446 | 24930 ft | 373 kts | 126° |
| 2026-04-17 20:46 | 31.99634 | 35.26807 | 24421 ft | 347 kts | 148° |
| 2026-04-17 20:46 | 31.92319 | 35.32691 | 22445 ft | 327 kts | 154° |
| 2026-04-17 20:46 | 31.85241 | 35.38963 | 20287 ft | 317 kts | 152° |
| 2026-04-17 20:47 | 31.78159 | 35.45024 | 18281 ft | 307 kts | 152° |
| 2026-04-17 20:47 | 31.71151 | 35.48196 | 16243 ft | 262 kts | 204° |
| 2026-04-17 20:47 | 31.64243 | 35.45983 | 14416 ft | 256 kts | 195° |
| 2026-04-17 20:47 | 31.57348 | 35.44499 | 12580 ft | 249 kts | 196° |
| 2026-04-17 20:48 | 31.50528 | 35.43003 | 10686 ft | 249 kts | 195° |
| 2026-04-17 20:48 | 31.43759 | 35.41507 | 8963 ft | 247 kts | 194° |
| 2026-04-17 20:48 | 31.36996 | 35.39999 | 7246 ft | 246 kts | 194° |
| 2026-04-17 20:48 | 31.33132 | 35.39063 | 6295 ft | 245 kts | 204° |
| 2026-04-17 20:49 | 31.31833 | 35.37809 | 5833 ft | 248 kts | 236° |
| 2026-04-17 20:49 | 31.31051 | 35.36002 | 5342 ft | 249 kts | 242° |
| 2026-04-17 20:49 | 31.30258 | 35.34226 | 5027 ft | 245 kts | 239° |
| 2026-04-17 20:49 | 31.29417 | 35.32485 | 4651 ft | 246 kts | 238° |
| 2026-04-17 20:50 | 31.28516 | 35.30805 | 4305 ft | 242 kts | 235° |
| 2026-04-17 20:50 | 31.27575 | 35.29212 | 4093 ft | 233 kts | 234° |
| 2026-04-17 20:50 | 31.26660 | 35.27695 | 4014 ft | 223 kts | 235° |
| 2026-04-17 20:50 | 31.25824 | 35.26225 | 3970 ft | 211 kts | 235° |
| 2026-04-17 20:51 | 31.25049 | 35.24820 | 3956 ft | 200 kts | 236° |
| 2026-04-17 20:51 | 31.24314 | 35.23485 | 3944 ft | 191 kts | 236° |
| 2026-04-17 20:51 | 31.23597 | 35.22160 | 3923 ft | 194 kts | 242° |
| 2026-04-17 20:51 | 31.23065 | 35.20721 | 3904 ft | 185 kts | 246° |
| 2026-04-17 20:52 | 31.22673 | 35.19429 | 4079 ft | 149 kts | 249° |
| 2026-04-17 20:52 | 31.22415 | 35.18326 | 4062 ft | 134 kts | 252° |
| 2026-04-17 20:52 | 31.22211 | 35.17318 | 3981 ft | 122 kts | 252° |
| 2026-04-17 20:52 | 31.22018 | 35.16361 | 3776 ft | 118 kts | 252° |
| 2026-04-17 20:53 | 31.21866 | 35.15488 | 3676 ft | 107 kts | 256° |
| 2026-04-17 20:53 | 31.21782 | 35.14578 | 3264 ft | 120 kts | 262° |
| 2026-04-17 20:53 | 31.21662 | 35.13648 | 3086 ft | 111 kts | 252° |
| 2026-04-17 20:53 | 31.21449 | 35.12803 | 2931 ft | 110 kts | 248° |
| 2026-04-17 20:54 | 31.21166 | 35.11963 | 2826 ft | 112 kts | 244° |
| 2026-04-17 20:54 | 31.20896 | 35.11113 | 2747 ft | 113 kts | 250° |
| 2026-04-17 20:54 | 31.20697 | 35.10210 | 2639 ft | 115 kts | 255° |
| 2026-04-17 20:54 | 31.20496 | 35.09268 | 2470 ft | 124 kts | 254° |
| 2026-04-17 20:55 | 31.20279 | 35.08262 | 2247 ft | 130 kts | 252° |
| 2026-04-17 20:55 | 31.20061 | 35.07234 | 1980 ft | 128 kts | 256° |
| 2026-04-17 20:55 | 31.19866 | 35.06234 | 1787 ft | 126 kts | 256° |
| 2026-04-17 20:55 | 31.19668 | 35.05254 | 1649 ft | 122 kts | 257° |
| 2026-04-17 20:56 | 31.19472 | 35.04291 | 1484 ft | 122 kts | 256° |
| 2026-04-17 20:56 | 31.19282 | 35.03338 | 1409 ft | 114 kts | 256° |
| 2026-04-17 20:56 | 31.19119 | 35.02514 | 1407 ft | 89 kts | 256° |
| 2026-04-17 20:56 | 31.19023 | 35.02053 | 1403 ft | 39 kts | 257° |
| 2026-04-17 20:57 | 31.19000 | 35.01909 | 1410 ft | 7 kts | 11° |